Time;durP1;ratioP1;P1;durP2;ratioP2;P2;SDS_P1;SDS_P2;PMS_P1;PMS_P2;Temp;Humidity;BMP_temperature;BMP_pressure;BME280_temperature;BME280_humidity;BME280_pressure;Samples;Min_cycle;Max_cycle;Signal;HPM_P1;HPM_P2
2022/11/05 00:10:09;;;;;;;;;;;12.50;99.90;;;;;;5112130;28;20320;-74
2022/11/05 00:18:04;;;;;;;;;;;12.50;99.90;;;;;;5112204;28;19910;-75
2022/11/05 00:20:29;;;;;;;;;;;12.50;99.90;;;;;;5093700;28;19994;-76
2022/11/05 00:25:51;;;;;;;;;;;12.50;99.90;;;;;;5112242;28;20030;-75
2022/11/05 00:28:16;;;;;;;;;;;12.40;99.90;;;;;;5093647;28;20398;-75
2022/11/05 00:30:42;;;;;;;;;;;12.40;99.90;;;;;;5093612;28;19907;-75
2022/11/05 00:33:07;;;;;;;;;;;12.40;99.90;;;;;;5111891;28;19903;-75
2022/11/05 00:35:33;;;;;;;;;;;12.40;99.90;;;;;;5091177;28;19916;-75
2022/11/05 00:37:58;;;;;;;;;;;12.30;99.90;;;;;;5091287;28;19946;-75
2022/11/05 00:40:24;;;;;;;;;;;12.30;99.90;;;;;;5075129;28;20388;-74
2022/11/05 00:45:33;;;;;;;;;;;12.30;99.90;;;;;;5111748;28;19933;-75
2022/11/05 00:50:43;;;;;;;;;;;12.30;99.90;;;;;;5111612;28;19915;-75
2022/11/05 00:53:08;;;;;;;;;;;12.30;99.90;;;;;;5089575;28;19927;-75
2022/11/05 00:55:34;;;;;;;;;;;12.20;99.90;;;;;;5086038;28;19955;-74
2022/11/05 00:58:01;;;;;;;;;;;12.20;99.90;;;;;;5084214;28;19939;-74
2022/11/05 01:00:28;;;;;;;;;;;12.20;99.90;;;;;;5091406;28;19908;-75
2022/11/05 01:02:56;;;;;;;;;;;12.20;99.90;;;;;;5091136;28;20319;-76
2022/11/05 01:05:21;;;;;;;;;;;12.10;99.90;;;;;;5090016;28;19904;-75
2022/11/05 01:07:47;;;;;;;;;;;12.10;99.90;;;;;;5089842;28;20349;-75
2022/11/05 01:10:12;;;;;;;;;;;12.10;99.90;;;;;;5089769;28;19918;-76
2022/11/05 01:12:38;;;;;;;;;;;12.10;99.90;;;;;;5089466;28;20380;-75
2022/11/05 01:15:04;;;;;;;;;;;12.10;99.90;;;;;;5091223;28;19908;-75
2022/11/05 01:17:29;;;;;;;;;;;12.10;99.90;;;;;;5083336;28;19931;-76
2022/11/05 01:19:55;;;;;;;;;;;12.00;99.90;;;;;;5072350;28;20104;-74
2022/11/05 01:22:20;;;;;;;;;;;12.00;99.90;;;;;;5086460;28;19950;-76
2022/11/05 01:24:46;;;;;;;;;;;12.00;99.90;;;;;;5095028;28;19958;-75
2022/11/05 01:27:11;;;;;;;;;;;12.00;99.90;;;;;;5094891;28;19911;-75
2022/11/05 01:29:37;;;;;;;;;;;12.00;99.90;;;;;;5093431;28;20078;-75
2022/11/05 01:32:02;;;;;;;;;;;12.00;99.90;;;;;;5094934;28;19904;-74
2022/11/05 01:34:28;;;;;;;;;;;12.00;99.90;;;;;;5093383;28;19927;-75
2022/11/05 01:36:53;;;;;;;;;;;12.00;99.90;;;;;;5094598;28;19904;-75
2022/11/05 01:39:19;;;;;;;;;;;12.00;99.90;;;;;;5093777;28;19953;-75
2022/11/05 01:41:44;;;;;;;;;;;12.00;99.90;;;;;;5094392;28;19904;-74
2022/11/05 01:44:28;;;;;;;;;;;12.00;99.90;;;;;;5093115;28;19966;-75
2022/11/05 01:46:54;;;;;;;;;;;12.00;99.90;;;;;;5094658;28;19911;-76
2022/11/05 01:49:30;;;;;;;;;;;12.00;99.90;;;;;;5093302;28;19912;-75
2022/11/05 01:51:56;;;;;;;;;;;12.00;99.90;;;;;;5096137;28;20391;-75
2022/11/05 01:54:25;;;;;;;;;;;12.00;99.90;;;;;;5114717;28;19911;-76
2022/11/05 01:56:53;;;;;;;;;;;12.00;99.90;;;;;;5096201;28;19912;-75
2022/11/05 01:59:26;;;;;;;;;;;12.00;99.90;;;;;;5114505;28;19964;-74
2022/11/05 02:01:52;;;;;;;;;;;12.00;99.90;;;;;;5114535;28;19904;-75
2022/11/05 02:04:31;;;;;;;;;;;11.90;99.90;;;;;;5113573;28;19923;-76
2022/11/05 02:06:57;;;;;;;;;;;12.00;99.90;;;;;;5096617;28;20037;-74
2022/11/05 02:09:32;;;;;;;;;;;11.90;99.90;;;;;;5086786;28;20022;-75
2022/11/05 02:11:57;;;;;;;;;;;11.90;99.90;;;;;;5095961;28;20333;-76
2022/11/05 02:14:23;;;;;;;;;;;11.90;99.90;;;;;;5114650;28;19912;-75
2022/11/05 02:16:51;;;;;;;;;;;11.90;99.90;;;;;;5114146;28;19910;-76
2022/11/05 02:19:19;;;;;;;;;;;11.90;99.90;;;;;;5114294;28;19911;-74
2022/11/05 02:22:04;;;;;;;;;;;11.90;99.90;;;;;;5096365;28;20375;-75
2022/11/05 02:24:35;;;;;;;;;;;11.90;99.90;;;;;;5114125;28;19957;-74
2022/11/05 02:27:19;;;;;;;;;;;11.90;99.90;;;;;;5114245;28;20414;-75
2022/11/05 02:30:02;;;;;;;;;;;11.90;99.90;;;;;;5114002;28;19986;-74
2022/11/05 02:32:27;;;;;;;;;;;11.90;99.90;;;;;;5095188;28;19933;-75
2022/11/05 02:35:11;;;;;;;;;;;11.90;99.90;;;;;;5095753;28;19903;-76
2022/11/05 02:37:38;;;;;;;;;;;11.90;99.90;;;;;;5078560;28;19908;-75
2022/11/05 02:40:09;;;;;;;;;;;11.90;99.90;;;;;;5075614;28;19904;-75
2022/11/05 02:42:43;;;;;;;;;;;11.90;99.90;;;;;;5093507;28;19961;-75
2022/11/05 02:45:14;;;;;;;;;;;12.00;99.90;;;;;;5084533;28;20691;-75
2022/11/05 02:47:41;;;;;;;;;;;12.00;99.90;;;;;;5113828;28;19910;-74
2022/11/05 02:50:33;;;;;;;;;;;12.00;99.90;;;;;;5113780;28;19953;-75
2022/11/05 02:52:58;;;;;;;;;;;11.90;99.90;;;;;;5089125;28;19982;-75
2022/11/05 02:55:39;;;;;;;;;;;12.00;99.90;;;;;;5113702;28;20372;-75
2022/11/05 02:58:04;;;;;;;;;;;12.00;99.90;;;;;;5113657;28;19947;-74
2022/11/05 03:00:33;;;;;;;;;;;12.00;99.90;;;;;;5103247;28;19962;-74
2022/11/05 03:02:58;;;;;;;;;;;12.00;99.90;;;;;;5113296;28;19907;-75
2022/11/05 03:05:27;;;;;;;;;;;12.00;99.90;;;;;;5112417;28;20436;-75
2022/11/05 03:07:58;;;;;;;;;;;11.90;99.90;;;;;;5082369;28;20025;-74
2022/11/05 03:10:38;;;;;;;;;;;11.90;99.90;;;;;;5112194;28;19908;-76
2022/11/05 03:13:21;;;;;;;;;;;12.00;99.90;;;;;;5106944;28;19908;-75
2022/11/05 03:15:47;;;;;;;;;;;11.90;99.90;;;;;;5106581;28;20506;-75
2022/11/05 03:18:23;;;;;;;;;;;11.90;99.90;;;;;;5094858;28;20020;-75
2022/11/05 03:20:53;;;;;;;;;;;12.00;99.90;;;;;;5094814;28;19922;-75
2022/11/05 03:23:34;;;;;;;;;;;11.90;99.90;;;;;;5112979;28;19918;-76
2022/11/05 03:26:11;;;;;;;;;;;11.90;99.90;;;;;;5111711;28;19907;-75
2022/11/05 03:28:38;;;;;;;;;;;11.90;99.90;;;;;;5108516;28;19961;-75
2022/11/05 03:31:05;;;;;;;;;;;11.90;99.90;;;;;;5092712;28;19908;-75
2022/11/05 03:33:32;;;;;;;;;;;11.90;99.90;;;;;;5094541;28;20014;-77
2022/11/05 03:36:00;;;;;;;;;;;11.90;99.90;;;;;;5082299;28;20414;-75
2022/11/05 03:38:31;;;;;;;;;;;11.90;99.90;;;;;;5112133;28;20371;-75
2022/11/05 03:40:58;;;;;;;;;;;11.90;99.90;;;;;;5112734;28;19903;-75
2022/11/05 03:43:27;;;;;;;;;;;11.80;99.90;;;;;;5111785;28;19911;-75
2022/11/05 03:45:56;;;;;;;;;;;11.90;99.90;;;;;;5094281;28;20451;-75
2022/11/05 03:48:24;;;;;;;;;;;11.80;99.90;;;;;;5112549;28;19903;-76
2022/11/05 03:51:08;;;;;;;;;;;11.90;99.90;;;;;;5094411;28;19958;-75
2022/11/05 03:53:37;;;;;;;;;;;11.80;99.90;;;;;;5094013;28;19916;-75
2022/11/05 03:56:32;;;;;;;;;;;11.80;99.90;;;;;;5094343;28;19935;-76
2022/11/05 03:58:59;;;;;;;;;;;11.80;99.90;;;;;;5072370;28;19908;-76
2022/11/05 04:01:25;;;;;;;;;;;11.80;99.90;;;;;;5112348;28;20010;-75
2022/11/05 04:03:50;;;;;;;;;;;11.80;99.90;;;;;;5112358;28;19998;-75
2022/11/05 04:14:29;;;;;;;;;;;11.80;99.90;;;;;;5112267;28;19995;-75
2022/11/05 04:17:10;;;;;;;;;;;11.80;99.90;;;;;;5093853;28;19931;-74
2022/11/05 04:25:27;;;;;;;;;;;11.80;99.90;;;;;;5048939;28;20004;-75
2022/11/05 04:27:57;;;;;;;;;;;11.80;99.90;;;;;;5074272;28;20007;-76
2022/11/05 04:30:22;;;;;;;;;;;11.80;99.90;;;;;;5090469;28;19904;-75
2022/11/05 04:32:54;;;;;;;;;;;11.80;99.90;;;;;;5087846;28;20380;-75
2022/11/05 04:35:19;;;;;;;;;;;11.80;99.90;;;;;;5073334;28;20257;-75
2022/11/05 04:37:45;;;;;;;;;;;11.80;99.90;;;;;;5087244;28;19903;-76
2022/11/05 04:40:10;;;;;;;;;;;11.80;99.90;;;;;;5093805;28;20660;-76
2022/11/05 04:42:36;;;;;;;;;;;11.80;99.90;;;;;;5093099;28;19953;-75
2022/11/05 04:45:01;;;;;;;;;;;11.90;99.90;;;;;;5093578;28;20287;-75
2022/11/05 04:47:27;;;;;;;;;;;11.80;99.90;;;;;;5101409;28;20002;-75
2022/11/05 04:49:52;;;;;;;;;;;11.80;99.90;;;;;;5079264;28;20276;-76
2022/11/05 04:52:18;;;;;;;;;;;11.80;99.90;;;;;;5073752;28;20023;-75
2022/11/05 04:54:44;;;;;;;;;;;11.80;99.90;;;;;;5067234;28;20341;-75
2022/11/05 04:57:09;;;;;;;;;;;11.80;99.90;;;;;;5073206;28;19904;-75
2022/11/05 04:59:35;;;;;;;;;;;11.80;99.90;;;;;;5097397;28;19911;-74
2022/11/05 05:02:00;;;;;;;;;;;11.80;99.90;;;;;;5082660;28;19943;-75
2022/11/05 05:04:26;;;;;;;;;;;11.80;99.90;;;;;;5072828;28;20402;-75
2022/11/05 05:06:51;;;;;;;;;;;11.80;99.90;;;;;;5086861;28;19998;-75
2022/11/05 05:09:17;;;;;;;;;;;11.70;99.90;;;;;;5093094;28;19907;-75
2022/11/05 05:11:42;;;;;;;;;;;11.80;99.90;;;;;;5076567;28;19907;-75
2022/11/05 05:14:07;;;;;;;;;;;11.80;99.90;;;;;;5091166;28;19915;-75
2022/11/05 05:16:33;;;;;;;;;;;11.80;99.90;;;;;;5092748;28;19953;-75
2022/11/05 05:18:58;;;;;;;;;;;11.80;99.90;;;;;;5075339;28;19986;-76
2022/11/05 05:21:40;;;;;;;;;;;11.80;99.90;;;;;;5072893;28;19951;-75
2022/11/05 05:24:13;;;;;;;;;;;11.70;99.90;;;;;;5090968;28;19955;-75
2022/11/05 05:26:41;;;;;;;;;;;11.70;99.90;;;;;;5072827;28;19908;-75
2022/11/05 05:29:07;;;;;;;;;;;11.70;99.90;;;;;;5072895;28;20675;-75
2022/11/05 05:31:33;;;;;;;;;;;11.70;99.90;;;;;;5090953;28;19912;-76
2022/11/05 05:33:58;;;;;;;;;;;11.80;99.90;;;;;;5090901;28;19934;-75
2022/11/05 05:36:24;;;;;;;;;;;11.80;99.90;;;;;;5073038;28;20010;-77
2022/11/05 05:38:50;;;;;;;;;;;11.80;99.90;;;;;;5090810;28;20003;-76
2022/11/05 05:41:15;;;;;;;;;;;11.70;99.90;;;;;;5073060;28;20330;-75
2022/11/05 05:43:41;;;;;;;;;;;11.80;99.90;;;;;;5106160;28;19923;-76
2022/11/05 05:46:08;;;;;;;;;;;11.80;99.90;;;;;;5107600;28;20302;-75
2022/11/05 05:48:33;;;;;;;;;;;11.70;99.90;;;;;;5092716;28;20291;-76
2022/11/05 05:51:03;;;;;;;;;;;11.80;99.90;;;;;;5092799;28;20363;-75
2022/11/05 05:53:29;;;;;;;;;;;11.80;99.90;;;;;;5095702;28;19920;-76
2022/11/05 05:55:55;;;;;;;;;;;11.80;99.90;;;;;;5090877;28;19956;-76
2022/11/05 05:58:22;;;;;;;;;;;11.80;99.90;;;;;;5087747;28;20376;-76
2022/11/05 06:00:47;;;;;;;;;;;11.80;99.90;;;;;;5107291;28;20372;-75
2022/11/05 06:03:12;;;;;;;;;;;11.80;99.90;;;;;;5105115;28;19920;-75
2022/11/05 06:05:38;;;;;;;;;;;11.80;99.90;;;;;;5072127;28;19943;-77
2022/11/05 06:08:04;;;;;;;;;;;11.80;99.90;;;;;;5093715;28;20395;-75
2022/11/05 06:10:29;;;;;;;;;;;11.80;99.90;;;;;;5096005;28;19911;-75
2022/11/05 06:12:55;;;;;;;;;;;11.80;99.90;;;;;;5096147;28;19915;-75
2022/11/05 06:15:20;;;;;;;;;;;11.80;99.90;;;;;;5094917;28;19992;-75
2022/11/05 06:17:46;;;;;;;;;;;11.80;99.90;;;;;;5091168;28;20375;-75
2022/11/05 06:20:11;;;;;;;;;;;11.80;99.90;;;;;;5075751;28;19904;-76
2022/11/05 06:22:37;;;;;;;;;;;11.90;99.90;;;;;;5094480;28;19912;-75
2022/11/05 06:25:03;;;;;;;;;;;11.80;99.90;;;;;;5097089;28;19915;-75
2022/11/05 06:27:29;;;;;;;;;;;11.80;99.90;;;;;;5075537;28;20384;-76
2022/11/05 06:29:55;;;;;;;;;;;11.80;99.90;;;;;;5094265;28;19903;-76
2022/11/05 06:32:20;;;;;;;;;;;11.90;99.90;;;;;;5093976;28;20387;-77
2022/11/05 06:34:45;;;;;;;;;;;11.80;99.90;;;;;;5103506;28;20368;-77
2022/11/05 06:37:11;;;;;;;;;;;11.80;99.90;;;;;;5077230;28;19915;-78
2022/11/05 06:39:37;;;;;;;;;;;11.80;99.90;;;;;;5093551;28;19958;-77
2022/11/05 06:42:02;;;;;;;;;;;11.80;99.90;;;;;;5104793;28;19908;-77
2022/11/05 06:44:28;;;;;;;;;;;11.80;99.90;;;;;;5081759;28;19920;-76
2022/11/05 06:46:53;;;;;;;;;;;11.80;99.90;;;;;;5075001;28;19911;-77
2022/11/05 06:49:23;;;;;;;;;;;11.80;99.90;;;;;;5077421;28;19908;-77
2022/11/05 06:51:49;;;;;;;;;;;11.80;99.90;;;;;;5087584;28;20006;-76
2022/11/05 06:54:14;;;;;;;;;;;11.80;99.90;;;;;;5105461;28;19920;-76
2022/11/05 06:56:40;;;;;;;;;;;11.80;99.90;;;;;;5098339;28;19907;-76
2022/11/05 06:59:07;;;;;;;;;;;11.80;99.90;;;;;;5112597;28;19915;-77
2022/11/05 07:01:33;;;;;;;;;;;11.80;99.90;;;;;;5083783;28;20394;-77
2022/11/05 07:03:58;;;;;;;;;;;11.70;99.90;;;;;;5093312;28;20400;-77
2022/11/05 07:06:25;;;;;;;;;;;11.70;99.90;;;;;;5094615;28;20394;-74
2022/11/05 07:08:50;;;;;;;;;;;11.80;99.90;;;;;;5112121;28;19988;-75
2022/11/05 07:11:16;;;;;;;;;;;11.80;99.90;;;;;;5100094;28;20310;-75
2022/11/05 07:13:41;;;;;;;;;;;11.80;99.90;;;;;;5104114;28;20440;-75
2022/11/05 07:16:07;;;;;;;;;;;11.70;99.90;;;;;;5101073;28;20465;-76
2022/11/05 07:18:33;;;;;;;;;;;11.80;99.90;;;;;;5094727;28;20387;-76
2022/11/05 07:20:59;;;;;;;;;;;11.70;99.90;;;;;;5091022;28;19904;-77
2022/11/05 07:23:24;;;;;;;;;;;11.70;99.90;;;;;;5092665;28;19974;-75
2022/11/05 07:25:50;;;;;;;;;;;11.70;99.90;;;;;;5101615;28;19907;-77
2022/11/05 07:28:15;;;;;;;;;;;11.70;99.90;;;;;;5111621;28;19903;-75
2022/11/05 07:30:41;;;;;;;;;;;11.70;99.90;;;;;;5074353;28;19951;-77
2022/11/05 07:33:06;;;;;;;;;;;11.60;99.90;;;;;;5093108;28;20414;-76
2022/11/05 07:35:32;;;;;;;;;;;11.70;99.90;;;;;;5111261;28;20395;-77
2022/11/05 07:37:58;;;;;;;;;;;11.70;99.90;;;;;;5110127;28;19923;-76
2022/11/05 07:40:24;;;;;;;;;;;11.70;99.90;;;;;;5112633;28;20370;-76
2022/11/05 07:42:51;;;;;;;;;;;11.70;99.90;;;;;;5105386;28;19908;-75
2022/11/05 07:45:17;;;;;;;;;;;11.70;99.90;;;;;;5104507;28;19912;-75
2022/11/05 07:47:46;;;;;;;;;;;11.70;99.90;;;;;;5083403;28;19907;-76
2022/11/05 07:50:12;;;;;;;;;;;11.70;99.90;;;;;;5092004;28;19908;-77
2022/11/05 07:52:38;;;;;;;;;;;11.70;99.90;;;;;;5109602;28;19930;-75
2022/11/05 07:55:03;;;;;;;;;;;11.70;99.90;;;;;;5074110;28;19948;-76
2022/11/05 07:57:29;;;;;;;;;;;11.70;99.90;;;;;;5091563;28;19993;-75
2022/11/05 07:59:54;;;;;;;;;;;11.70;99.90;;;;;;5092094;28;19908;-76
2022/11/05 08:02:20;;;;;;;;;;;11.70;99.90;;;;;;5109623;28;19911;-76
2022/11/05 08:04:45;;;;;;;;;;;11.70;99.90;;;;;;5094618;28;19989;-76
2022/11/05 08:07:11;;;;;;;;;;;11.80;99.90;;;;;;5074854;28;19990;-76
2022/11/05 08:09:36;;;;;;;;;;;11.80;99.90;;;;;;5092215;28;19931;-76
2022/11/05 08:12:02;;;;;;;;;;;11.80;99.90;;;;;;5087656;28;19907;-77
2022/11/05 08:14:28;;;;;;;;;;;11.80;99.90;;;;;;5111984;28;19915;-76
2022/11/05 08:16:53;;;;;;;;;;;11.80;99.90;;;;;;5080539;28;20385;-77
2022/11/05 08:19:19;;;;;;;;;;;11.80;99.90;;;;;;5081138;28;19915;-75
2022/11/05 08:21:44;;;;;;;;;;;11.80;99.90;;;;;;5107266;28;19912;-76
2022/11/05 08:24:10;;;;;;;;;;;11.80;99.90;;;;;;5091458;28;19970;-76
2022/11/05 08:26:35;;;;;;;;;;;11.90;99.90;;;;;;5093587;28;19904;-76
2022/11/05 08:29:01;;;;;;;;;;;11.90;99.90;;;;;;5110185;28;19911;-76
2022/11/05 08:31:26;;;;;;;;;;;11.90;99.90;;;;;;5093394;28;19904;-76
2022/11/05 08:33:52;;;;;;;;;;;11.90;99.90;;;;;;5103824;28;20356;-76
2022/11/05 08:36:18;;;;;;;;;;;12.00;99.90;;;;;;5091274;28;19907;-76
2022/11/05 08:38:43;;;;;;;;;;;12.00;99.90;;;;;;5090922;28;19908;-75
2022/11/05 08:41:09;;;;;;;;;;;12.00;99.90;;;;;;5104037;28;20003;-76
2022/11/05 08:43:35;;;;;;;;;;;12.00;99.90;;;;;;5083149;28;19915;-76
2022/11/05 08:46:00;;;;;;;;;;;12.00;99.90;;;;;;5107187;28;19911;-75
2022/11/05 08:48:26;;;;;;;;;;;12.00;99.90;;;;;;5093175;28;20383;-75
2022/11/05 08:50:52;;;;;;;;;;;12.10;99.90;;;;;;5108404;28;19994;-75
2022/11/05 08:53:17;;;;;;;;;;;12.10;99.90;;;;;;5099860;28;21015;-76
2022/11/05 08:55:45;;;;;;;;;;;12.00;99.90;;;;;;5086736;28;19959;-76
2022/11/05 08:58:11;;;;;;;;;;;12.00;99.90;;;;;;5111572;28;19908;-76
2022/11/05 09:00:37;;;;;;;;;;;12.00;99.90;;;;;;5091406;28;20435;-77
2022/11/05 09:03:04;;;;;;;;;;;12.00;99.90;;;;;;5109779;28;19912;-76
2022/11/05 09:05:30;;;;;;;;;;;12.00;99.90;;;;;;5082318;28;19908;-75
2022/11/05 09:07:56;;;;;;;;;;;12.00;99.90;;;;;;5073143;28;20360;-76
2022/11/05 09:10:22;;;;;;;;;;;12.00;99.90;;;;;;5105842;28;19904;-76
2022/11/05 09:12:48;;;;;;;;;;;12.00;99.90;;;;;;5111288;28;19952;-77
2022/11/05 09:15:13;;;;;;;;;;;12.00;99.90;;;;;;5110203;28;19911;-76
2022/11/05 09:17:39;;;;;;;;;;;12.00;99.90;;;;;;5102752;28;19942;-76
2022/11/05 09:20:06;;;;;;;;;;;12.00;99.90;;;;;;5073186;28;19946;-76
2022/11/05 09:22:32;;;;;;;;;;;12.00;99.90;;;;;;5073276;28;20287;-76
2022/11/05 09:24:58;;;;;;;;;;;12.00;99.90;;;;;;5098150;28;20405;-75
2022/11/05 09:27:23;;;;;;;;;;;12.00;99.90;;;;;;5077666;28;19912;-77
2022/11/05 09:29:49;;;;;;;;;;;12.00;99.90;;;;;;5097649;28;20265;-77
2022/11/05 09:32:17;;;;;;;;;;;12.10;99.90;;;;;;5110987;28;19912;-77
2022/11/05 09:34:43;;;;;;;;;;;12.00;99.90;;;;;;5102716;28;19903;-77
2022/11/05 09:37:09;;;;;;;;;;;12.00;99.90;;;;;;5073040;28;19918;-76
2022/11/05 09:39:35;;;;;;;;;;;12.00;99.90;;;;;;5090866;28;19915;-77
2022/11/05 09:42:03;;;;;;;;;;;12.00;99.90;;;;;;5108575;28;19908;-76
2022/11/05 09:44:49;;;;;;;;;;;11.90;99.90;;;;;;5111761;28;19916;-77
2022/11/05 09:47:16;;;;;;;;;;;12.00;99.90;;;;;;5093436;28;19942;-75
2022/11/05 09:49:46;;;;;;;;;;;12.00;99.90;;;;;;5088353;28;19908;-75
2022/11/05 09:52:22;;;;;;;;;;;12.00;99.90;;;;;;5085207;28;19925;-77
2022/11/05 09:55:47;;;;;;;5.83;4.27;;;12.00;99.90;;;;;;5110193;27;20447;-75
2022/11/05 09:58:24;;;;;;;7.05;4.95;;;12.10;99.90;;;;;;5108332;28;20088;-74
2022/11/05 10:00:51;;;;;;;6.55;4.90;;;12.10;99.90;;;;;;5106947;28;20023;-75
2022/11/05 10:03:23;;;;;;;6.30;4.68;;;12.10;99.90;;;;;;5107185;28;20016;-74
2022/11/05 10:05:50;;;;;;;5.55;4.55;;;12.10;99.90;;;;;;5106120;28;20032;-75
2022/11/05 10:08:21;;;;;;;5.60;4.40;;;12.10;99.90;;;;;;5106161;28;20016;-74
2022/11/05 10:10:53;;;;;;;5.68;4.47;;;12.20;99.90;;;;;;5105996;28;20085;-74
2022/11/05 10:13:40;;;;;;;5.93;4.13;;;12.20;99.90;;;;;;5107506;28;20511;-73
2022/11/05 10:16:26;;;;;;;6.50;4.60;;;12.30;99.90;;;;;;5106601;28;20395;-74
2022/11/05 10:19:05;;;;;;;6.32;4.30;;;12.30;99.90;;;;;;5107982;28;20573;-74
2022/11/05 10:21:31;;;;;;;7.22;5.78;;;12.40;99.90;;;;;;5123767;28;20503;-74
2022/11/05 10:23:57;;;;;;;;;;;12.40;99.90;;;;;;5108420;28;20046;-74
2022/11/05 10:26:26;;;;;;;5.68;4.05;;;12.50;99.90;;;;;;5108006;28;19904;-75
2022/11/05 10:28:52;;;;;;;5.88;4.60;;;12.50;99.90;;;;;;5107813;28;20022;-76
2022/11/05 10:31:20;;;;;;;5.93;4.50;;;12.50;99.90;;;;;;5123864;28;20020;-75
2022/11/05 10:34:04;;;;;;;11.48;5.15;;;12.50;99.90;;;;;;5123486;28;20035;-77
2022/11/05 10:36:36;;;;;;;6.85;5.43;;;12.50;99.90;;;;;;5106662;28;20407;-74
2022/11/05 10:39:17;;;;;;;8.48;6.47;;;12.60;99.90;;;;;;5108038;28;20492;-75
2022/11/05 10:42:07;;;;;;;7.30;5.28;;;12.60;99.90;;;;;;5119133;28;20055;-75
2022/11/05 10:44:47;;;;;;;7.82;5.75;;;12.60;99.90;;;;;;5086102;28;20050;-75
2022/11/05 10:47:30;;;;;;;8.15;5.07;;;12.60;99.90;;;;;;5086116;28;20499;-75
2022/11/05 10:50:03;;;;;;;6.57;4.57;;;12.60;99.90;;;;;;5086031;28;20115;-74
2022/11/05 10:52:35;;;;;;;6.28;5.22;;;12.60;99.90;;;;;;5085646;28;20068;-75
2022/11/05 10:55:09;;;;;;;11.68;6.95;;;12.60;99.90;;;;;;5087024;28;20076;-74
2022/11/05 10:57:40;;;;;;;11.00;9.40;;;12.60;99.90;;;;;;5086927;28;20082;-74
2022/11/05 11:00:15;;;;;;;13.23;9.48;;;12.60;99.90;;;;;;5087099;28;20463;-74
2022/11/05 11:02:42;;;;;;;12.48;9.32;;;12.60;99.90;;;;;;5085565;28;20035;-74
2022/11/05 11:05:16;;;;;;;13.02;10.57;;;12.50;99.90;;;;;;5083705;28;20021;-74
2022/11/05 11:07:42;;;;;;;13.63;9.93;;;12.50;99.90;;;;;;5073128;28;20453;-76
2022/11/05 11:10:17;;;;;;;;;;;12.50;99.90;;;;;;5072591;28;20078;-76
2022/11/05 11:12:43;;;;;;;13.27;10.20;;;12.50;99.90;;;;;;5073219;28;19905;-76
2022/11/05 11:15:12;;;;;;;;;;;12.50;99.90;;;;;;5073809;28;20162;-74
2022/11/05 11:17:38;;;;;;;;;;;12.60;99.90;;;;;;5073242;28;19909;-74
2022/11/05 11:20:09;;;;;;;;;;;12.60;99.90;;;;;;5073828;28;20452;-74
2022/11/05 11:22:35;;;;;;;;;;;12.60;99.90;;;;;;5073541;28;19915;-74
2022/11/05 11:25:16;;;;;;;;;;;12.60;99.90;;;;;;5071963;28;19983;-74
2022/11/05 11:27:42;;;;;;;;;;;12.60;99.90;;;;;;5073497;28;19928;-77
2022/11/05 11:30:15;;;;;;;;;;;12.60;99.90;;;;;;5072074;28;20331;-73
2022/11/05 11:32:41;;;;;;;;;;;12.70;99.90;;;;;;5071953;28;19908;-73
2022/11/05 11:35:17;;;;;;;;;;;12.70;99.90;;;;;;5072131;28;19912;-74
2022/11/05 11:37:43;;;;;;;;;;;12.70;99.90;;;;;;5072512;28;19911;-74
2022/11/05 11:40:14;;;;;;;;;;;12.90;99.90;;;;;;5071969;28;19909;-75
2022/11/05 11:42:42;;;;;;;;;;;12.90;99.90;;;;;;5073209;28;20327;-76
2022/11/05 11:45:14;;;;;;;;;;;13.00;99.90;;;;;;5071745;28;20002;-75
2022/11/05 11:47:44;;;;;;;;;;;13.10;99.90;;;;;;5072198;28;19908;-74
2022/11/05 11:50:28;;;;;;;;;;;13.10;99.90;;;;;;5071525;28;19969;-74
2022/11/05 11:52:54;;;;;;;;;;;13.20;99.90;;;;;;5073043;28;19908;-73
2022/11/05 11:55:21;;;;;;;;;;;13.20;99.90;;;;;;5071452;28;19966;-74
2022/11/05 11:57:48;;;;;;;;;;;13.30;99.90;;;;;;5072692;28;20013;-74
2022/11/05 12:00:14;;;;;;;;;;;13.30;99.90;;;;;;5072694;28;19928;-74
2022/11/05 12:02:46;;;;;;;;;;;13.40;99.90;;;;;;5071489;28;19912;-74
2022/11/05 12:05:11;;;;;;;;;;;13.60;99.90;;;;;;5068058;28;19909;-75
2022/11/05 12:07:42;;;;;;;;;;;13.70;99.90;;;;;;5052831;28;20292;-75
2022/11/05 12:10:14;;;;;;;;;;;13.60;99.90;;;;;;5067814;28;19909;-74
2022/11/05 12:12:58;;;;;;;;;;;13.60;99.90;;;;;;5056963;28;20397;-74
2022/11/05 12:15:43;;;;;;;;;;;13.60;99.90;;;;;;5067571;28;20380;-75
2022/11/05 12:18:15;;;;;;;;;;;13.50;99.90;;;;;;5051181;28;19979;-75
2022/11/05 12:20:47;;;;;;;;;;;13.50;99.90;;;;;;5050813;28;19905;-74
2022/11/05 12:23:31;;;;;;;;;;;13.40;99.90;;;;;;5052428;28;19909;-74
2022/11/05 12:26:02;;;;;;;;;;;13.40;99.90;;;;;;5067438;28;19904;-73
2022/11/05 12:28:39;;;;;;;;;;;13.30;99.90;;;;;;5072242;28;19919;-75
2022/11/05 12:31:12;;;;;;;;;;;13.20;99.90;;;;;;5070634;28;19904;-74
2022/11/05 12:33:55;;;;;;;;;;;13.20;99.90;;;;;;5070768;28;19908;-75
2022/11/05 12:36:20;;;;;;;;;;;13.10;99.90;;;;;;5071906;28;19908;-74
2022/11/05 12:38:46;;;;;;;;;;;13.10;99.90;;;;;;5070509;28;19912;-74
2022/11/05 12:41:17;;;;;;;;;;;13.00;99.90;;;;;;5071870;28;20323;-75
2022/11/05 12:43:58;;;;;;;;;;;13.00;99.90;;;;;;5070685;28;19908;-74
2022/11/05 12:46:23;;;;;;;;;;;12.90;99.90;;;;;;5070181;28;19904;-73
2022/11/05 12:49:15;;;;;;;;;;;12.90;99.90;;;;;;5071839;28;19935;-74
2022/11/05 12:51:51;;;;;;;;;;;12.90;99.90;;;;;;5063139;28;19904;-74
2022/11/05 12:54:20;;;;;;;;;;;12.90;99.90;;;;;;5071247;28;19922;-74
2022/11/05 12:56:45;;;;;;;;;;;12.80;99.90;;;;;;5070099;28;20368;-74
2022/11/05 12:59:17;;;;;;;;;;;12.90;99.90;;;;;;5070361;28;20007;-75
2022/11/05 13:01:45;;;;;;;;;;;12.80;99.90;;;;;;5071321;28;19927;-75
2022/11/05 13:04:17;;;;;;;;;;;12.80;99.90;;;;;;5071471;28;19952;-74
2022/11/05 13:06:45;;;;;;;;;;;12.80;99.90;;;;;;5070515;28;19908;-79
2022/11/05 13:09:17;;;;;;;;;;;12.70;99.90;;;;;;5070930;28;19908;-74
2022/11/05 13:11:45;;;;;;;;;;;12.70;99.90;;;;;;5069933;28;19912;-74
2022/11/05 13:14:13;;;;;;;;;;;12.70;99.90;;;;;;5057996;28;20455;-74
2022/11/05 13:16:45;;;;;;;;;;;12.70;99.90;;;;;;5071148;28;19909;-75
2022/11/05 13:19:13;;;;;;;;;;;12.60;99.90;;;;;;5070193;28;19908;-74
2022/11/05 13:21:40;;;;;;;;;;;12.60;99.90;;;;;;5070293;28;19904;-75
2022/11/05 13:24:15;;;;;;;;;;;12.60;99.90;;;;;;5071118;28;19912;-74
2022/11/05 13:26:45;;;;;;;;;;;12.60;99.90;;;;;;5070782;28;20010;-75
2022/11/05 13:29:13;;;;;;;;;;;12.60;99.90;;;;;;5070873;28;19908;-74
2022/11/05 13:31:49;;;;;;;;;;;12.60;99.90;;;;;;5069999;28;19954;-74
2022/11/05 13:34:15;;;;;;;;;;;12.60;99.90;;;;;;5069688;28;19920;-74
2022/11/05 13:39:31;;;;;;;;;;;12.60;99.90;;;;;;5051195;28;20435;-74
2022/11/05 13:42:22;;;;;;;;;;;12.60;99.90;;;;;;5065865;28;19951;-75
2022/11/05 13:44:50;;;;;;;;;;;12.60;99.90;;;;;;5049698;28;20380;-74
2022/11/05 13:47:16;;;;;;;;;;;12.60;99.90;;;;;;5051118;28;19905;-74
2022/11/05 13:49:44;;;;;;;;;;;12.60;99.90;;;;;;5076375;28;19908;-74
2022/11/05 13:52:30;;;;;;;;;;;12.60;99.90;;;;;;5066465;28;19909;-74
2022/11/05 13:55:04;;;;;;;;;;;12.70;99.90;;;;;;5050614;28;20423;-74
2022/11/05 13:57:39;;;;;;;;;;;12.60;99.90;;;;;;5062406;28;20382;-74
2022/11/05 14:00:16;;;;;;;;;;;12.60;99.90;;;;;;5070945;28;19904;-78
2022/11/05 14:02:44;;;;;;;;;;;12.60;99.90;;;;;;5062321;28;19954;-74
2022/11/05 14:05:21;;;;;;;;;;;12.60;99.90;;;;;;5070736;28;19904;-73
2022/11/05 14:07:47;;;;;;;;;;;12.60;99.90;;;;;;5070889;28;19908;-75
2022/11/05 14:10:19;;;;;;;;;;;12.60;99.90;;;;;;5070691;28;20384;-73
2022/11/05 14:12:52;;;;;;;;;;;12.60;99.90;;;;;;5069467;28;19955;-75
2022/11/05 14:15:23;;;;;;;;;;;12.60;99.90;;;;;;5070699;28;19916;-74
2022/11/05 14:23:24;;;;;;;19.43;15.47;;;12.40;99.90;;;;;;5101902;27;20702;-76
2022/11/05 14:25:49;;;;;;;18.88;14.20;;;12.40;99.90;;;;;;5094524;28;20028;-75
2022/11/05 14:28:34;;;;;;;;;;;12.40;99.90;;;;;;5088606;28;20028;-74
2022/11/05 14:31:18;;;;;;;16.23;11.05;;;12.40;99.90;;;;;;5069993;28;19904;-74
2022/11/05 14:34:16;;;;;;;14.05;9.82;;;12.40;99.90;;;;;;5101900;28;20020;-74
2022/11/05 14:36:44;;;;;;;11.02;9.25;;;12.40;99.90;;;;;;5084377;28;20431;-75
2022/11/05 14:39:24;;;;;;;11.40;9.60;;;12.40;99.90;;;;;;5086039;28;20029;-75
2022/11/05 14:42:08;;;;;;;23.88;14.00;;;12.40;99.90;;;;;;5064293;28;20037;-75
2022/11/05 14:44:35;;;;;;;21.13;14.93;;;12.30;99.90;;;;;;5072901;28;20089;-75
2022/11/05 14:47:17;;;;;;;15.80;10.02;;;12.30;99.90;;;;;;5077670;28;20396;-74
2022/11/05 14:50:08;;;;;;;12.50;9.43;;;12.30;99.90;;;;;;5081064;28;20127;-74
2022/11/05 14:52:34;;;;;;;11.48;9.45;;;12.30;99.90;;;;;;5069185;28;20020;-74
2022/11/05 14:55:00;;;;;;;14.00;11.30;;;12.30;99.90;;;;;;5060039;28;20089;-74
2022/11/05 14:57:41;;;;;;;;;;;12.20;99.90;;;;;;5085906;28;20051;-76
2022/11/05 15:00:27;;;;;;;31.38;19.40;;;12.30;99.90;;;;;;5049548;28;19995;-74
2022/11/05 15:03:00;;;;;;;25.05;18.10;;;12.30;99.90;;;;;;5063758;28;20074;-75